createdAt,value
2023-04-14T00:00:07.113Z,17.80
2023-04-14T00:02:41.311Z,18.27
2023-04-14T00:05:10.228Z,18.07
2023-04-14T00:07:39.651Z,17.60
2023-04-14T00:10:08.338Z,18.83
2023-04-14T00:12:36.484Z,19.77
2023-04-14T00:15:04.836Z,18.47
2023-04-14T00:17:32.867Z,17.40
2023-04-14T00:20:00.848Z,17.13
2023-04-14T00:22:28.791Z,16.63
2023-04-14T00:24:58.095Z,16.57
2023-04-14T00:27:26.102Z,16.03
2023-04-14T00:29:54.238Z,15.73
2023-04-14T00:32:22.405Z,15.90
2023-04-14T00:34:50.415Z,16.30
2023-04-14T00:37:18.406Z,16.53
2023-04-14T00:39:46.385Z,15.80
2023-04-14T00:42:15.825Z,15.67
2023-04-14T00:44:43.858Z,15.63
2023-04-14T00:47:12.053Z,16.13
2023-04-14T00:49:40.145Z,16.00
2023-04-14T00:52:08.117Z,16.33
2023-04-14T00:58:41.980Z,15.03
2023-04-14T01:01:10.046Z,15.30
2023-04-14T01:03:39.416Z,15.70
2023-04-14T01:06:07.874Z,16.37
2023-04-14T01:08:37.060Z,15.43
2023-04-14T01:11:17.703Z,16.13
2023-04-14T01:13:53.679Z,16.17
2023-04-14T01:16:30.069Z,16.03
2023-04-14T01:19:07.667Z,16.80
2023-04-14T01:21:39.481Z,15.97
2023-04-14T01:24:26.109Z,15.70
2023-04-14T01:27:03.613Z,15.50
2023-04-14T01:29:53.589Z,15.70
2023-04-14T01:32:25.024Z,15.00
2023-04-14T01:34:57.618Z,15.10
2023-04-14T01:37:31.194Z,15.17
2023-04-14T01:40:03.631Z,14.70
2023-04-14T01:42:36.787Z,15.63
2023-04-14T01:45:23.579Z,15.70
2023-04-14T01:47:53.625Z,14.57
2023-04-14T01:50:23.316Z,15.40
2023-04-14T01:52:55.069Z,15.10
2023-04-14T01:55:27.413Z,14.70
2023-04-14T01:57:59.101Z,16.23
2023-04-14T02:00:27.748Z,16.53
2023-04-14T02:02:57.733Z,15.90
2023-04-14T02:05:27.437Z,16.43
2023-04-14T02:07:56.538Z,16.90
2023-04-14T02:10:25.791Z,17.10
2023-04-14T02:12:58.509Z,17.20
2023-04-14T02:15:28.698Z,17.37
2023-04-14T02:17:58.949Z,16.63
2023-04-14T02:20:28.829Z,17.67
2023-04-14T02:22:56.933Z,17.57
2023-04-14T02:25:30.630Z,17.47
2023-04-14T02:28:04.729Z,17.43
2023-04-14T02:30:36.318Z,17.33
2023-04-14T02:33:08.979Z,17.90
2023-04-14T02:35:43.684Z,18.37
2023-04-14T02:38:17.151Z,18.57
2023-04-14T02:40:45.977Z,18.03
2023-04-14T02:43:18.936Z,19.13
2023-04-14T02:45:50.712Z,17.77
2023-04-14T02:48:24.734Z,19.07
2023-04-14T02:50:56.537Z,18.83
2023-04-14T02:53:28.261Z,18.23
2023-04-14T02:56:17.521Z,18.33
2023-04-14T02:58:48.045Z,17.10
2023-04-14T03:01:17.528Z,17.70
2023-04-14T03:03:47.616Z,19.23
2023-04-14T03:06:16.951Z,17.53
2023-04-14T03:08:46.423Z,17.23
2023-04-14T03:11:15.421Z,17.67
2023-04-14T03:13:45.970Z,16.70
2023-04-14T03:16:15.034Z,16.83
2023-04-14T03:18:44.145Z,17.00
2023-04-14T03:21:16.739Z,16.67
2023-04-14T03:23:46.228Z,17.40
2023-04-14T03:26:18.482Z,18.13
2023-04-14T03:28:48.269Z,17.53
2023-04-14T03:31:19.101Z,16.50
2023-04-14T03:33:57.229Z,16.97
2023-04-14T03:36:33.894Z,16.93
2023-04-14T03:39:05.916Z,18.73
2023-04-14T03:41:39.421Z,18.33
2023-04-14T03:44:15.626Z,19.73
2023-04-14T03:46:46.784Z,18.83
2023-04-14T03:49:18.297Z,20.33
2023-04-14T03:51:52.445Z,22.47
2023-04-14T03:54:23.980Z,21.47
2023-04-14T03:56:56.736Z,20.93
2023-04-14T03:59:27.716Z,23.67
2023-04-14T04:01:57.202Z,23.80
2023-04-14T04:04:26.238Z,24.27
2023-04-14T04:06:56.026Z,23.90
2023-04-14T04:09:24.892Z,23.73
2023-04-14T04:11:54.101Z,24.07
2023-04-14T04:14:24.846Z,23.67
2023-04-14T04:16:55.510Z,24.33
2023-04-14T04:19:24.950Z,23.90
2023-04-14T04:21:58.289Z,24.73
2023-04-14T04:24:28.770Z,24.63
2023-04-14T04:26:57.349Z,25.20
2023-04-14T04:29:27.083Z,24.77
2023-04-14T04:31:55.662Z,24.53
2023-04-14T04:34:26.380Z,24.80
2023-04-14T04:36:57.210Z,24.30
2023-04-14T04:39:26.248Z,24.10
2023-04-14T04:42:03.049Z,23.77
2023-04-14T04:44:33.182Z,24.80
2023-04-14T04:47:02.524Z,24.23
2023-04-14T04:49:30.544Z,25.07
2023-04-14T04:52:05.018Z,25.87
2023-04-14T04:54:33.101Z,25.73
2023-04-14T04:57:01.157Z,25.27
2023-04-14T04:59:29.307Z,25.10
2023-04-14T05:01:57.362Z,23.93
2023-04-14T05:04:25.488Z,23.53
2023-04-14T05:06:53.738Z,24.90
2023-04-14T05:09:23.138Z,24.00
2023-04-14T05:11:51.162Z,24.97
2023-04-14T05:14:19.085Z,24.63
2023-04-14T05:16:47.163Z,24.13
2023-04-14T05:19:15.690Z,25.07
2023-04-14T05:21:43.627Z,25.13
2023-04-14T05:24:11.585Z,23.53
2023-04-14T05:29:11.766Z,22.83
2023-04-14T05:31:39.791Z,23.63
2023-04-14T05:34:07.853Z,23.93
2023-04-14T05:36:35.860Z,25.20
2023-04-14T05:39:04.266Z,23.23
2023-04-14T05:41:32.196Z,22.90
2023-04-14T05:44:03.433Z,22.17
2023-04-14T05:46:31.773Z,22.53
2023-04-14T05:49:01.290Z,21.67
2023-04-14T05:51:30.338Z,23.13
2023-04-14T05:53:58.425Z,22.23
2023-04-14T05:56:26.767Z,22.33
2023-04-14T05:58:55.788Z,22.37
2023-04-14T06:01:25.276Z,21.77
2023-04-14T06:04:01.209Z,21.93
2023-04-14T06:06:32.679Z,21.80
2023-04-14T06:09:01.014Z,21.23
2023-04-14T06:11:29.282Z,20.40
2023-04-14T06:13:57.240Z,21.27
2023-04-14T06:16:26.513Z,21.43
2023-04-14T06:18:54.454Z,20.93
2023-04-14T06:21:22.558Z,21.60
2023-04-14T06:23:50.709Z,23.50
2023-04-14T06:26:18.707Z,21.40
2023-04-14T06:28:47.078Z,21.43
2023-04-14T06:31:15.357Z,20.53
2023-04-14T06:33:44.783Z,20.43
2023-04-14T06:36:13.782Z,20.67
2023-04-14T06:38:41.771Z,19.60
2023-04-14T06:41:09.798Z,17.77
2023-04-14T06:43:37.796Z,18.23
2023-04-14T06:46:06.220Z,18.00
2023-04-14T06:48:34.266Z,18.77
2023-04-14T06:51:03.795Z,17.00
2023-04-14T06:53:31.742Z,16.33
2023-04-14T06:56:02.369Z,16.03
2023-04-14T06:58:30.482Z,15.87
2023-04-14T07:00:59.083Z,16.37
2023-04-14T07:03:30.598Z,16.00
2023-04-14T07:06:05.559Z,16.60
2023-04-14T07:08:35.075Z,16.10
2023-04-14T07:11:04.161Z,15.83
2023-04-14T07:13:32.235Z,15.17
2023-04-14T07:16:02.194Z,16.30
2023-04-14T07:18:30.280Z,14.30
2023-04-14T07:20:59.062Z,13.90
2023-04-14T07:23:29.169Z,13.70
2023-04-14T07:25:59.149Z,12.23
2023-04-14T07:28:28.812Z,13.40
2023-04-14T07:30:57.073Z,11.90
2023-04-14T07:33:27.003Z,11.83
2023-04-14T07:36:02.720Z,11.80
2023-04-14T07:38:33.101Z,11.33
2023-04-14T07:41:01.529Z,11.23
2023-04-14T07:43:34.774Z,10.97
2023-04-14T07:46:05.154Z,11.97
2023-04-14T07:48:33.912Z,9.80
2023-04-14T07:51:03.102Z,9.27
2023-04-14T07:53:33.183Z,8.10
2023-04-14T07:56:01.333Z,8.37
2023-04-14T07:58:29.902Z,8.00
2023-04-14T08:00:58.357Z,7.93
2023-04-14T08:03:26.591Z,7.33
2023-04-14T08:05:54.785Z,7.60
2023-04-14T08:08:23.172Z,7.47
2023-04-14T08:10:52.499Z,7.43
2023-04-14T08:13:20.805Z,7.37
2023-04-14T08:15:48.932Z,7.20
2023-04-14T08:18:17.025Z,7.73
2023-04-14T08:20:45.326Z,9.30
2023-04-14T08:23:13.298Z,8.33
2023-04-14T08:25:42.330Z,8.00
2023-04-14T08:28:12.411Z,8.33
2023-04-14T08:30:41.380Z,7.47
2023-04-14T08:33:09.417Z,6.77
2023-04-14T08:35:42.607Z,6.40
2023-04-14T08:38:11.557Z,6.13
2023-04-14T08:40:41.261Z,6.37
2023-04-14T08:43:09.245Z,6.77
2023-04-14T08:45:38.913Z,6.00
2023-04-14T08:48:07.728Z,5.80
2023-04-14T08:50:38.745Z,6.20
2023-04-14T08:53:10.436Z,6.33
2023-04-14T08:55:42.207Z,6.37
2023-04-14T08:58:11.579Z,9.20
2023-04-14T09:00:41.189Z,9.07
2023-04-14T09:03:10.131Z,7.80
2023-04-14T09:05:38.791Z,6.50
2023-04-14T09:08:07.004Z,6.07
2023-04-14T09:10:37.085Z,6.93
2023-04-14T09:13:06.625Z,6.43
2023-04-14T09:15:34.707Z,5.70
2023-04-14T09:18:04.148Z,6.07
2023-04-14T09:20:36.048Z,6.10
2023-04-14T09:23:09.372Z,6.23
2023-04-14T09:25:38.895Z,5.73
2023-04-14T09:28:06.847Z,5.70
2023-04-14T09:30:35.313Z,5.77
2023-04-14T09:33:07.488Z,5.60
2023-04-14T09:35:45.520Z,5.93
2023-04-14T09:38:13.721Z,5.63
2023-04-14T09:40:44.044Z,5.43
2023-04-14T09:43:25.299Z,5.07
2023-04-14T09:45:53.921Z,5.20
2023-04-14T09:48:23.361Z,5.00
2023-04-14T09:51:04.485Z,4.73
2023-04-14T09:53:33.941Z,5.30
2023-04-14T09:56:05.992Z,4.63
2023-04-14T09:58:35.623Z,4.90
2023-04-14T10:01:05.635Z,4.50
2023-04-14T10:03:41.104Z,4.47
2023-04-14T10:06:10.751Z,5.20
2023-04-14T10:08:41.238Z,4.70
2023-04-14T10:11:17.936Z,4.80
2023-04-14T10:13:46.333Z,5.17
2023-04-14T10:16:14.763Z,5.43
2023-04-14T10:18:44.733Z,5.40
2023-04-14T10:21:13.161Z,5.10
2023-04-14T10:23:42.225Z,5.80
2023-04-14T10:26:11.878Z,5.27
2023-04-14T10:28:43.185Z,5.73
2023-04-14T10:31:14.233Z,4.90
2023-04-14T10:33:43.821Z,5.17
2023-04-14T10:36:12.137Z,4.87
2023-04-14T10:38:42.195Z,4.73
2023-04-14T10:41:11.215Z,5.10
2023-04-14T10:43:39.830Z,5.17
2023-04-14T10:46:09.751Z,5.50
2023-04-14T10:48:40.223Z,4.60
2023-04-14T10:51:10.881Z,4.40
2023-04-14T10:53:44.843Z,4.77
2023-04-14T10:56:12.972Z,4.37
2023-04-14T10:58:41.217Z,4.70
2023-04-14T11:01:31.513Z,4.87
2023-04-14T11:04:17.354Z,5.00
2023-04-14T11:06:57.303Z,4.10
2023-04-14T11:09:27.347Z,4.23
2023-04-14T11:11:57.483Z,4.30
2023-04-14T11:14:29.264Z,4.90
2023-04-14T11:17:04.514Z,4.43
2023-04-14T11:19:33.722Z,3.90
2023-04-14T11:22:03.208Z,4.03
2023-04-14T11:24:32.234Z,4.10
2023-04-14T11:27:00.567Z,3.80
2023-04-14T11:29:28.567Z,3.57
2023-04-14T11:32:04.049Z,3.50
2023-04-14T11:34:32.775Z,3.57
2023-04-14T11:37:04.978Z,3.57
2023-04-14T11:39:35.559Z,3.43
2023-04-14T11:42:05.022Z,3.20
2023-04-14T11:44:33.773Z,3.70
2023-04-14T11:47:01.897Z,3.50
2023-04-14T11:49:36.630Z,3.37
2023-04-14T11:52:09.423Z,3.33
2023-04-14T11:54:38.428Z,3.17
2023-04-14T11:57:11.394Z,3.30
2023-04-14T11:59:46.485Z,3.10
2023-04-14T12:02:18.160Z,3.13
2023-04-14T12:04:47.310Z,3.00
2023-04-14T12:07:19.241Z,3.70
2023-04-14T12:09:48.840Z,3.80
2023-04-14T12:12:18.858Z,3.47
2023-04-14T12:14:48.377Z,3.33
2023-04-14T12:17:17.440Z,3.67
2023-04-14T12:19:46.699Z,2.93
2023-04-14T12:22:23.622Z,3.03
2023-04-14T12:24:51.999Z,3.20
2023-04-14T12:27:20.628Z,3.00
2023-04-14T12:29:50.103Z,2.87
2023-04-14T12:32:18.661Z,2.63
2023-04-14T12:34:54.815Z,2.43
2023-04-14T12:37:27.570Z,2.40
2023-04-14T12:39:58.402Z,2.30
2023-04-14T12:42:27.271Z,2.47
2023-04-14T12:44:56.327Z,2.33
2023-04-14T12:47:29.565Z,2.70
2023-04-14T12:49:58.540Z,2.20
2023-04-14T12:52:38.539Z,2.13
2023-04-14T12:55:08.248Z,1.87
2023-04-14T12:57:36.710Z,1.90
2023-04-14T13:00:05.411Z,1.90
2023-04-14T13:02:35.578Z,1.93
2023-04-14T13:05:04.891Z,1.73
2023-04-14T13:07:33.069Z,2.00
2023-04-14T13:10:03.563Z,2.10
2023-04-14T13:12:31.788Z,2.57
2023-04-14T13:15:00.414Z,2.87
2023-04-14T13:17:28.882Z,2.60
2023-04-14T13:19:57.101Z,2.87
2023-04-14T13:22:25.746Z,3.40
2023-04-14T13:24:53.843Z,3.70
2023-04-14T13:27:23.203Z,3.33
2023-04-14T13:29:51.541Z,3.30
2023-04-14T13:32:19.706Z,2.73
2023-04-14T13:34:49.117Z,3.20
2023-04-14T13:37:17.944Z,3.07
2023-04-14T13:39:46.216Z,2.80
2023-04-14T13:42:15.082Z,2.80
2023-04-14T13:44:44.378Z,2.87
2023-04-14T13:47:12.436Z,2.83
2023-04-14T13:49:40.335Z,2.57
2023-04-14T13:52:09.479Z,2.73
2023-04-14T13:54:37.547Z,2.67
2023-04-14T13:57:05.970Z,2.60
2023-04-14T13:59:34.123Z,2.63
2023-04-14T14:02:04.581Z,2.60
2023-04-14T14:04:35.811Z,2.40
2023-04-14T14:07:03.912Z,3.00
2023-04-14T14:09:31.884Z,2.50
2023-04-14T14:11:59.851Z,2.73
2023-04-14T14:14:28.362Z,2.60
2023-04-14T14:16:56.362Z,2.60
2023-04-14T14:19:25.970Z,2.43
2023-04-14T14:21:54.007Z,2.97
2023-04-14T14:24:22.016Z,2.20
2023-04-14T14:26:50.021Z,2.20
2023-04-14T14:29:23.647Z,2.43
2023-04-14T14:31:51.745Z,2.70
2023-04-14T14:34:20.583Z,2.43
2023-04-14T14:36:50.184Z,2.40
2023-04-14T14:39:18.493Z,2.93
2023-04-14T14:41:46.573Z,2.60
2023-04-14T14:44:15.511Z,2.47
2023-04-14T14:46:45.975Z,2.27
2023-04-14T14:49:14.171Z,2.43
2023-04-14T14:51:42.118Z,2.47
2023-04-14T14:54:11.615Z,2.60
2023-04-14T14:56:39.920Z,2.70
2023-04-14T14:59:08.447Z,2.40
2023-04-14T15:01:36.867Z,3.00
2023-04-14T15:04:06.368Z,2.87
2023-04-14T15:06:35.972Z,3.30
2023-04-14T15:09:05.292Z,3.57
2023-04-14T15:11:34.727Z,4.13
2023-04-14T15:14:03.485Z,4.10
2023-04-14T15:16:32.024Z,4.43
2023-04-14T15:19:00.446Z,4.30
2023-04-14T15:21:28.386Z,4.53
2023-04-14T15:23:56.472Z,4.63
2023-04-14T15:26:24.477Z,4.43
2023-04-14T15:28:54.247Z,3.80
2023-04-14T15:31:22.258Z,3.93
2023-04-14T15:33:50.301Z,4.07
2023-04-14T15:36:18.282Z,3.57
2023-04-14T15:38:47.025Z,4.63
2023-04-14T15:41:15.059Z,4.97
2023-04-14T15:43:43.138Z,5.07
2023-04-14T15:46:14.384Z,4.73
2023-04-14T15:48:42.863Z,4.87
2023-04-14T15:51:10.950Z,3.83
2023-04-14T15:53:38.919Z,4.20
2023-04-14T15:56:07.240Z,4.40
2023-04-14T15:58:35.436Z,4.73
2023-04-14T16:01:07.620Z,7.07
2023-04-14T16:03:37.879Z,6.30
2023-04-14T16:06:08.138Z,13.87
2023-04-14T16:08:36.362Z,6.07
2023-04-14T16:11:04.973Z,5.67
2023-04-14T16:13:33.126Z,4.83
2023-04-14T16:16:01.207Z,7.07
2023-04-14T16:18:29.216Z,18.10
2023-04-14T16:20:58.536Z,10.23
2023-04-14T16:23:28.356Z,4.13
2023-04-14T16:25:56.937Z,4.97
2023-04-14T16:28:24.938Z,6.10
2023-04-14T16:30:53.563Z,4.00
2023-04-14T16:33:21.715Z,4.83
2023-04-14T16:35:49.717Z,4.00
2023-04-14T16:38:19.051Z,3.90
2023-04-14T16:40:55.907Z,3.60
2023-04-14T16:43:24.730Z,3.63
2023-04-14T16:45:52.884Z,3.30
2023-04-14T16:48:21.053Z,3.37
2023-04-14T16:50:49.023Z,3.40
2023-04-14T16:53:19.024Z,3.73
2023-04-14T16:55:46.984Z,4.67
2023-04-14T16:58:15.024Z,6.00
2023-04-14T17:00:43.321Z,4.53
2023-04-14T17:03:11.557Z,5.37
2023-04-14T17:05:39.675Z,4.03
2023-04-14T17:08:07.737Z,3.70
2023-04-14T17:10:38.686Z,5.77
2023-04-14T17:13:06.674Z,6.90
2023-04-14T17:15:34.723Z,6.40
2023-04-14T17:18:02.795Z,8.60
2023-04-14T17:20:31.813Z,5.47
2023-04-14T17:23:00.226Z,3.87
2023-04-14T17:25:28.481Z,4.10
2023-04-14T17:27:58.057Z,4.10
2023-04-14T17:30:27.437Z,4.43
2023-04-14T17:32:56.376Z,6.07
2023-04-14T17:35:25.085Z,5.20
2023-04-14T17:37:53.103Z,5.37
2023-04-14T17:40:21.096Z,5.63
2023-04-14T17:42:49.098Z,6.80
2023-04-14T17:45:22.911Z,9.03
2023-04-14T17:47:51.679Z,6.63
2023-04-14T17:50:20.014Z,5.27
2023-04-14T17:52:48.726Z,5.50
2023-04-14T17:55:16.844Z,6.43
2023-04-14T17:57:46.545Z,6.93
2023-04-14T18:00:16.910Z,6.83
2023-04-14T18:02:46.417Z,5.87
2023-04-14T18:05:14.423Z,6.47
2023-04-14T18:07:43.312Z,6.63
2023-04-14T18:10:12.115Z,6.70
2023-04-14T18:12:40.237Z,6.27
2023-04-14T18:15:11.964Z,6.73
2023-04-14T18:17:41.186Z,5.90
2023-04-14T18:20:11.830Z,6.13
2023-04-14T18:22:40.035Z,5.77
2023-04-14T18:25:09.112Z,6.20
2023-04-14T18:30:10.636Z,6.00
2023-04-14T18:32:40.421Z,6.03
2023-04-14T18:35:10.483Z,6.20
2023-04-14T18:37:39.833Z,6.23
2023-04-14T18:40:08.912Z,6.17
2023-04-14T18:42:37.000Z,6.67
2023-04-14T18:45:05.817Z,6.20
2023-04-14T18:47:34.249Z,6.10
2023-04-14T18:50:02.329Z,6.17
2023-04-14T18:52:31.624Z,6.47
2023-04-14T18:54:59.585Z,6.07
2023-04-14T18:57:29.026Z,6.00
2023-04-14T18:59:57.184Z,7.00
2023-04-14T19:02:25.996Z,6.50
2023-04-14T19:04:54.237Z,6.63
2023-04-14T19:07:22.333Z,6.83
2023-04-14T19:09:51.764Z,6.77
2023-04-14T19:12:28.158Z,6.57
2023-04-14T19:14:56.768Z,6.73
2023-04-14T19:17:24.914Z,6.53
2023-04-14T19:19:52.888Z,7.27
2023-04-14T19:22:21.027Z,6.37
2023-04-14T19:24:50.593Z,6.40
2023-04-14T19:27:20.197Z,6.07
2023-04-14T19:29:48.285Z,6.67
2023-04-14T19:32:16.527Z,6.67
2023-04-14T19:34:44.535Z,6.43
2023-04-14T19:37:12.597Z,6.90
2023-04-14T19:39:40.537Z,6.57
2023-04-14T19:42:08.614Z,6.37
2023-04-14T19:44:38.110Z,6.93
2023-04-14T19:47:06.389Z,6.60
2023-04-14T19:49:35.294Z,6.60
2023-04-14T19:52:04.781Z,6.50
2023-04-14T19:54:32.780Z,6.80
2023-04-14T19:57:00.801Z,7.23
2023-04-14T19:59:31.381Z,7.60
2023-04-14T20:02:01.821Z,6.97
2023-04-14T20:04:29.936Z,6.90
2023-04-14T20:06:58.138Z,6.90
2023-04-14T20:09:26.157Z,6.73
2023-04-14T20:11:54.608Z,7.07
2023-04-14T20:14:22.927Z,6.97
2023-04-14T20:16:51.471Z,7.37
2023-04-14T20:19:21.375Z,6.60
2023-04-14T20:21:49.402Z,6.90
2023-04-14T20:24:17.635Z,7.70
2023-04-14T20:26:46.570Z,6.80
2023-04-14T20:29:15.910Z,6.60
2023-04-14T20:35:43.106Z,7.13
2023-04-14T20:38:15.202Z,7.00
2023-04-14T20:40:43.612Z,7.50
2023-04-14T20:43:11.745Z,6.57
2023-04-14T20:45:40.034Z,7.47
2023-04-14T20:48:09.098Z,7.50
2023-04-14T20:50:37.283Z,6.97
2023-04-14T20:53:07.359Z,7.03
2023-04-14T20:55:36.456Z,6.90
2023-04-14T20:58:04.433Z,7.03
2023-04-14T21:00:34.231Z,7.30
2023-04-14T21:03:03.591Z,7.00
2023-04-14T21:05:31.776Z,7.20
2023-04-14T21:08:00.004Z,7.13
2023-04-14T21:10:29.506Z,7.10
2023-04-14T21:15:31.487Z,7.47
2023-04-14T21:15:54.425Z,7.30
2023-04-14T21:18:24.344Z,7.23
2023-04-14T21:20:52.357Z,8.10
2023-04-14T21:23:21.417Z,8.03
2023-04-14T21:25:50.816Z,7.73
2023-04-14T21:28:19.307Z,7.97
2023-04-14T21:30:47.756Z,8.23
2023-04-14T21:33:16.139Z,8.07
2023-04-14T21:35:44.616Z,7.30
2023-04-14T21:38:12.825Z,8.33
2023-04-14T21:40:40.792Z,7.87
2023-04-14T21:43:10.132Z,8.23
2023-04-14T21:45:38.150Z,8.17
2023-04-14T21:48:06.375Z,8.50
2023-04-14T21:50:34.626Z,8.43
2023-04-14T21:53:04.213Z,8.30
2023-04-14T21:55:32.471Z,7.73
2023-04-14T21:58:00.550Z,9.00
2023-04-14T22:00:30.920Z,9.03
2023-04-14T22:02:59.125Z,8.23
2023-04-14T22:05:27.188Z,8.43
2023-04-14T22:07:55.355Z,8.53
2023-04-14T22:10:23.511Z,8.77
2023-04-14T22:12:52.029Z,8.97
2023-04-14T22:15:20.227Z,8.33
2023-04-14T22:17:50.483Z,9.10
2023-04-14T22:20:19.372Z,8.37
2023-04-14T22:22:47.369Z,8.40
2023-04-14T22:25:15.320Z,8.77
2023-04-14T22:27:43.302Z,8.43
2023-04-14T22:30:12.273Z,8.67
2023-04-14T22:32:40.270Z,8.47
2023-04-14T22:35:10.379Z,7.90
2023-04-14T22:37:38.319Z,7.67
2023-04-14T22:40:07.425Z,8.50
2023-04-14T22:42:35.464Z,8.53
2023-04-14T22:45:03.536Z,8.17
2023-04-14T22:47:31.559Z,8.10
2023-04-14T22:49:59.546Z,8.00
2023-04-14T22:52:29.003Z,8.00
2023-04-14T22:54:56.914Z,7.93
2023-04-14T22:57:24.970Z,7.67
2023-04-14T22:59:52.997Z,8.03
2023-04-14T23:02:21.493Z,8.47
2023-04-14T23:04:49.720Z,7.90
2023-04-14T23:07:17.701Z,7.80
2023-04-14T23:09:46.982Z,8.23
2023-04-14T23:12:14.974Z,7.57
2023-04-14T23:14:42.913Z,7.07
2023-04-14T23:17:11.061Z,7.73
2023-04-14T23:19:39.246Z,7.70
2023-04-14T23:22:07.457Z,7.93
2023-04-14T23:24:35.845Z,7.70
2023-04-14T23:27:05.264Z,7.43
2023-04-14T23:29:33.212Z,7.60
2023-04-14T23:32:01.340Z,7.63
2023-04-14T23:34:30.140Z,7.47
2023-04-14T23:36:58.146Z,7.67
2023-04-14T23:39:26.141Z,7.30
2023-04-14T23:41:54.407Z,7.33
2023-04-14T23:44:24.218Z,7.50
2023-04-14T23:46:52.582Z,7.03
2023-04-14T23:49:24.080Z,7.53
2023-04-14T23:52:00.880Z,7.53
2023-04-14T23:54:30.763Z,7.27
2023-04-14T23:56:58.746Z,7.33
2023-04-14T23:59:28.376Z,7.53
